.
WxDataArchive / Data Records for 2015-11-06
2015-11-05 November 2015 2015-11-07

Data Records for Friday, 06 November 2015

Time	Temp	Chill	HIndex	Humid	Dewpt	 Wind 	HiWind	WindDir	Rain 	Barom
-----	----	-----	------	-----	-----	------	------	-------	-----	-----
00:00	64.0	64.0	64.0	92	61.6	0	3	90	0.00	29.820 
00:05	64.0	64.0	64.0	92	61.6	0	2	90	0.00	29.820 
00:10	63.9	63.9	63.9	92	61.5	0	3	135	0.00	29.820 
00:15	63.9	63.9	63.9	92	61.5	0	1	135	0.00	29.817 
00:20	63.9	63.9	63.9	92	61.5	0	1	135	0.00	29.817 
00:25	63.9	63.9	63.9	92	61.5	0	1	135	0.00	29.817 
00:30	63.7	63.7	63.7	92	61.3	0	1	135	0.00	29.793 
00:35	63.5	63.5	63.5	91	60.8	0	1	135	0.00	29.793 
00:40	63.5	63.5	63.5	91	60.8	0	1	135	0.00	29.793 
00:45	63.5	63.5	63.5	91	60.8	0	1	135	0.00	29.801 
00:50	63.5	63.5	63.5	91	60.8	0	1	135	0.00	29.801 
00:55	63.5	63.5	63.5	91	60.8	0	0	---	0.00	29.801 
01:00	63.4	63.4	63.4	91	60.7	0	2	135	0.00	29.791 
01:05	63.4	63.4	63.4	91	60.7	1	4	135	0.00	29.791 
01:10	63.4	63.4	63.4	90	60.4	0	2	112	0.00	29.791 
01:15	63.4	63.4	63.4	90	60.4	0	1	90	0.00	29.776 
01:20	63.4	63.4	63.4	90	60.4	0	1	90	0.00	29.776 
01:25	63.4	63.4	63.4	90	60.4	0	1	90	0.01	29.776 
01:30	63.4	63.4	63.4	90	60.4	0	1	90	0.00	29.770 
01:35	63.5	63.5	63.5	90	60.5	1	4	90	0.00	29.770 
01:40	63.5	63.5	63.5	90	60.5	0	2	90	0.01	29.770 
01:45	63.5	63.5	63.5	91	60.8	0	3	90	0.00	29.766 
01:50	63.5	63.5	63.5	91	60.8	0	1	90	0.00	29.766 
01:55	63.5	63.5	63.5	91	60.8	0	2	202	0.00	29.766 
02:00	63.7	63.7	63.7	91	61.0	1	5	225	0.00	29.762 
02:05	63.7	63.7	63.7	91	61.0	0	5	225	0.00	29.762 
02:10	63.9	63.9	63.9	91	61.2	0	3	225	0.00	29.762 
02:15	63.9	63.9	63.9	91	61.2	1	7	248	0.00	29.757 
02:20	63.9	63.9	63.9	92	61.5	2	7	248	0.01	29.757 
02:25	64.0	64.0	64.0	92	61.6	1	6	248	0.00	29.757 
02:30	64.0	64.0	64.0	92	61.6	1	4	248	0.00	29.753 
02:35	64.0	64.0	64.0	92	61.6	1	5	248	0.00	29.753 
02:40	64.0	64.0	64.0	92	61.6	0	2	248	0.00	29.753 
02:45	64.0	64.0	64.0	92	61.6	1	5	248	0.00	29.748 
02:50	64.2	64.2	64.2	92	61.8	1	10	248	0.00	29.748 
02:55	64.2	64.2	64.2	92	61.8	1	4	270	0.00	29.748 
03:00	64.3	64.3	64.3	92	61.9	2	5	248	0.00	29.738 
03:05	64.3	64.3	64.3	91	61.6	2	7	248	0.00	29.738 
03:10	64.5	64.5	64.5	91	61.8	1	6	248	0.00	29.738 
03:15	64.5	64.5	64.5	90	61.5	2	5	248	0.00	29.723 
03:20	64.5	64.5	64.5	90	61.5	2	6	248	0.00	29.723 
03:25	64.7	64.7	64.7	89	61.4	2	9	248	0.00	29.723 
03:30	64.7	64.7	64.7	88	61.1	2	9	248	0.00	29.718 
03:35	64.8	64.8	64.8	88	61.2	2	6	248	0.00	29.718 
03:40	64.8	64.8	64.8	87	60.8	2	11	248	0.00	29.718 
03:45	64.8	64.8	64.8	87	60.8	1	5	248	0.00	29.716 
03:50	64.8	64.8	64.8	86	60.5	1	4	248	0.00	29.716 
03:55	64.8	64.8	64.8	86	60.5	2	6	248	0.00	29.716 
04:00	64.8	64.8	64.8	85	60.2	2	7	248	0.00	29.708 
04:05	65.0	65.0	65.0	84	60.0	2	6	248	0.00	29.708 
04:10	64.8	64.8	64.8	84	59.8	2	7	248	0.00	29.708 
04:15	64.7	64.7	64.7	85	60.1	2	11	248	0.00	29.694 
04:20	64.5	64.5	64.5	85	59.9	1	7	248	0.00	29.694 
04:25	64.3	64.3	64.3	86	60.0	2	7	248	0.00	29.694 
04:30	64.2	64.2	64.2	86	59.9	1	3	248	0.00	29.655 
04:35	64.0	64.0	64.0	86	59.7	1	5	248	0.01	29.655 
04:40	63.9	63.9	63.9	87	59.9	1	3	248	0.00	29.655 
04:45	63.7	63.7	63.7	88	60.1	2	9	248	0.00	29.707 
04:50	63.7	63.7	63.7	88	60.1	2	7	248	0.01	29.707 
04:55	63.5	63.5	63.5	88	59.9	1	7	248	0.00	29.707 
05:00	63.5	63.5	63.5	88	59.9	1	5	270	0.00	29.690 
05:05	63.5	63.5	63.5	88	59.9	1	5	248	0.00	29.690 
05:10	63.5	63.5	63.5	88	59.9	1	6	248	0.00	29.690 
05:15	63.7	63.7	63.7	88	60.1	1	2	248	0.00	29.708 
05:20	63.7	63.7	63.7	88	60.1	1	4	248	0.00	29.708 
05:25	63.7	63.7	63.7	87	59.8	1	5	248	0.00	29.708 
05:30	63.7	63.7	63.7	87	59.8	1	5	248	0.00	29.707 
05:35	63.7	63.7	63.7	87	59.8	1	5	270	0.00	29.707 
05:40	63.9	63.9	63.9	87	59.9	2	6	248	0.00	29.707 
05:45	63.9	63.9	63.9	87	59.9	1	5	248	0.00	29.708 
05:50	63.9	63.9	63.9	87	59.9	1	4	248	0.00	29.708 
05:55	63.9	63.9	63.9	87	59.9	2	6	248	0.00	29.708 
06:00	63.7	63.7	63.7	88	60.1	1	5	248	0.01	29.706 
06:05	63.5	63.5	63.5	88	59.9	1	5	225	0.00	29.706 
06:10	63.4	63.4	63.4	89	60.1	1	5	248	0.00	29.706 
06:15	63.2	63.2	63.2	89	59.9	1	5	248	0.00	29.716 
06:20	63.1	63.1	63.1	90	60.1	2	9	248	0.00	29.716 
06:25	63.1	63.1	63.1	90	60.1	2	5	270	0.00	29.716 
06:30	62.9	62.9	62.9	91	60.2	1	4	248	0.01	29.730 
06:35	62.9	62.9	62.9	91	60.2	2	7	248	0.00	29.730 
06:40	62.9	62.9	62.9	91	60.2	3	14	248	0.03	29.730 
06:45	62.4	62.4	62.4	91	59.7	4	9	248	0.01	29.745 
06:50	62.6	62.6	62.6	92	60.2	1	4	248	0.00	29.745 
06:55	62.4	62.4	62.4	92	60.0	2	6	248	0.00	29.745 
07:00	62.3	62.3	62.3	92	59.9	2	4	248	0.00	29.755 
07:05	62.1	62.1	62.1	91	59.4	1	5	248	0.00	29.755 
07:10	62.0	62.0	62.0	91	59.3	1	5	248	0.00	29.755 
07:15	61.8	61.8	61.8	91	59.1	1	3	248	0.00	29.762 
07:20	61.8	61.8	61.8	90	58.8	1	5	248	0.00	29.762 
07:25	61.6	61.6	61.6	89	58.3	1	3	248	0.00	29.762 
07:30	61.6	61.6	61.6	89	58.3	2	4	248	0.00	29.777 
07:35	61.6	61.6	61.6	88	58.0	1	4	248	0.00	29.777 
07:40	61.5	61.5	61.5	87	57.6	2	5	292	0.00	29.777 
07:45	61.3	61.3	61.3	85	56.7	2	5	270	0.00	29.789 
07:50	61.2	61.2	61.2	83	56.0	3	7	270	0.00	29.789 
07:55	60.7	60.7	60.7	77	53.4	5	11	270	0.00	29.789 
08:00	60.4	60.4	60.4	73	51.7	5	11	270	0.00	29.808 
08:05	60.1	60.1	60.1	72	51.0	4	7	270	0.00	29.808 
08:10	59.8	59.8	59.8	72	50.8	4	10	292	0.00	29.808 
08:15	59.6	59.6	59.6	71	50.2	3	7	270	0.00	29.826 
08:20	59.3	59.3	59.3	70	49.5	2	6	270	0.00	29.826 
08:25	58.9	58.9	58.9	65	47.2	6	12	270	0.00	29.826 
08:30	58.7	58.7	58.7	67	47.8	4	9	270	0.00	29.833 
08:35	58.4	58.4	58.4	68	47.9	4	7	270	0.00	29.833 
08:40	58.3	58.3	58.3	71	48.9	2	5	270	0.00	29.833 
08:45	58.0	58.0	58.0	72	49.0	2	5	270	0.00	29.843 
08:50	57.8	57.8	57.8	73	49.2	3	6	270	0.00	29.843 
08:55	57.8	57.8	57.8	74	49.6	2	5	270	0.00	29.843 
09:00	57.8	57.8	57.8	75	49.9	1	5	270	0.00	29.851 
09:05	57.6	57.6	57.6	76	50.1	1	5	270	0.00	29.851 
09:10	57.6	57.6	57.6	77	50.4	1	7	248	0.00	29.851 
09:15	57.6	57.6	57.6	78	50.8	1	4	248	0.00	29.860 
09:20	57.6	57.6	57.6	77	50.4	2	7	248	0.00	29.860 
09:25	57.6	57.6	57.6	76	50.1	2	6	248	0.00	29.860 
09:30	57.5	57.5	57.5	74	49.3	2	5	248	0.00	29.870 
09:35	57.6	57.6	57.6	75	49.7	2	5	248	0.00	29.870 
09:40	57.6	57.6	57.6	74	49.4	2	9	248	0.00	29.870 
09:45	57.5	57.5	57.5	74	49.3	3	11	270	0.00	29.879 
09:50	57.5	57.5	57.5	74	49.3	2	5	270	0.00	29.879 
09:55	57.2	57.2	57.2	73	48.6	3	6	270	0.00	29.879 
10:00	57.0	57.0	57.0	72	48.1	3	9	270	0.00	29.884 
10:05	56.7	56.7	56.7	72	47.8	3	5	270	0.00	29.884 
10:10	56.6	56.6	56.6	72	47.7	3	7	270	0.00	29.884 
10:15	56.5	56.5	56.5	73	47.9	1	5	270	0.00	29.891 
10:20	56.3	56.3	56.3	73	47.8	3	7	270	0.00	29.891 
10:25	56.3	56.3	56.3	72	47.4	3	8	248	0.00	29.891 
10:30	56.3	56.3	56.3	72	47.4	3	6	248	0.00	29.899 
10:35	56.2	56.2	56.2	72	47.3	3	6	270	0.00	29.899 
10:40	55.9	55.9	55.9	71	46.6	2	7	248	0.00	29.899 
10:45	55.9	55.9	55.9	72	47.0	2	6	248	0.00	29.913 
10:50	55.7	55.7	55.7	70	46.1	2	6	270	0.00	29.913 
10:55	55.6	55.6	55.6	69	45.6	3	6	270	0.00	29.913 
11:00	55.4	55.4	55.4	70	45.8	3	6	270	0.00	29.924 
11:05	55.3	55.3	55.3	70	45.7	3	9	270	0.00	29.924 
11:10	55.3	55.3	55.3	69	45.3	3	7	270	0.00	29.924 
11:15	55.1	55.1	55.1	69	45.1	4	7	270	0.00	29.929 
11:20	55.1	55.1	55.1	69	45.1	3	7	248	0.00	29.929 
11:25	55.1	55.1	55.1	68	44.7	3	6	248	0.00	29.929 
11:30	55.1	55.1	55.1	67	44.3	4	7	270	0.00	29.935 
11:35	55.1	55.1	55.1	68	44.7	3	9	270	0.00	29.935 
11:40	55.3	55.3	55.3	71	46.1	2	6	248	0.00	29.935 
11:45	55.6	55.6	55.6	71	46.3	2	10	270	0.00	29.940 
11:50	55.4	55.4	55.4	71	46.2	2	6	270	0.00	29.940 
11:55	55.4	55.4	55.4	70	45.8	2	6	248	0.00	29.940 
12:00	55.3	55.3	55.3	70	45.7	3	7	270	0.00	29.944 
12:05	55.0	55.0	55.0	69	45.0	3	7	248	0.00	29.944 
12:10	55.0	55.0	55.0	70	45.4	3	9	270	0.00	29.944 
12:15	55.0	55.0	55.0	70	45.4	3	7	270	0.00	29.956 
12:20	54.7	54.7	54.7	70	45.1	4	7	270	0.00	29.956 
12:25	54.2	54.2	54.2	69	44.3	4	7	270	0.00	29.956 
12:30	53.9	53.9	53.9	69	44.0	4	7	270	0.00	29.960 
12:35	53.9	53.9	53.9	68	43.6	3	9	270	0.00	29.960 
12:40	53.6	53.6	53.6	69	43.7	3	7	270	0.00	29.960 
12:45	53.8	53.8	53.8	71	44.6	3	8	270	0.00	29.960 
12:50	53.9	53.9	53.9	68	43.6	3	7	270	0.00	29.960 
12:55	54.2	54.2	54.2	68	43.9	2	6	248	0.00	29.960 
13:00	54.4	54.4	54.4	67	43.7	2	5	248	0.00	29.962 
13:05	54.4	54.4	54.4	67	43.7	3	5	248	0.00	29.962 
13:10	54.4	54.4	54.4	66	43.3	4	9	292	0.00	29.962 
13:15	53.9	53.9	53.9	66	42.8	3	6	270	0.00	29.960 
13:20	53.6	53.6	53.6	66	42.5	3	6	270	0.00	29.960 
13:25	53.3	53.3	53.3	67	42.6	3	6	270	0.00	29.960 
13:30	53.2	53.2	53.2	67	42.5	3	6	270	0.00	29.972 
13:35	53.2	53.2	53.2	66	42.1	3	7	270	0.00	29.972 
13:40	53.1	53.1	53.1	67	42.4	3	7	270	0.00	29.972 
13:45	53.3	53.3	53.3	68	43.0	4	6	270	0.00	29.971 
13:50	53.9	53.9	53.9	66	42.8	4	7	292	0.00	29.971 
13:55	54.5	54.5	54.5	66	43.4	3	6	270	0.00	29.971 
14:00	54.7	54.7	54.7	63	42.4	4	5	270	0.00	29.969 
14:05	55.0	55.0	55.0	63	42.6	3	4	270	0.00	29.969 
14:10	55.6	55.6	55.6	63	43.2	2	6	270	0.00	29.969 
14:15	55.1	55.1	55.1	61	41.9	4	10	315	0.00	29.974 
14:20	55.1	55.1	55.1	61	41.9	2	5	292	0.00	29.974 
14:25	55.1	55.1	55.1	61	41.9	3	5	270	0.00	29.974 
14:30	55.4	55.4	55.4	60	41.7	3	6	270	0.00	29.975 
14:35	55.6	55.6	55.6	58	41.1	2	7	248	0.00	29.975 
14:40	55.6	55.6	55.6	59	41.5	2	4	248	0.00	29.975 
14:45	55.6	55.6	55.6	58	41.1	2	7	248	0.00	29.980 
14:50	55.4	55.4	55.4	58	40.9	3	6	270	0.00	29.980 
14:55	55.0	55.0	55.0	60	41.4	2	6	270	0.00	29.980 
15:00	54.8	54.8	54.8	60	41.2	3	6	292	0.00	29.984 
15:05	54.8	54.8	54.8	61	41.6	3	6	270	0.00	29.984 
15:10	55.3	55.3	55.3	61	42.1	2	7	270	0.00	29.984 
15:15	55.6	55.6	55.6	60	41.9	2	7	248	0.00	29.984 
15:20	55.4	55.4	55.4	59	41.3	2	6	270	0.00	29.984 
15:25	55.6	55.6	55.6	60	41.9	1	3	270	0.00	29.984 
15:30	55.3	55.3	55.3	58	40.8	2	5	248	0.00	29.988 
15:35	55.0	55.0	55.0	60	41.4	1	5	270	0.00	29.988 
15:40	54.8	54.8	54.8	59	40.7	2	6	248	0.00	29.988 
15:45	54.5	54.5	54.5	58	40.0	2	7	248	0.00	29.995 
15:50	54.4	54.4	54.4	60	40.8	2	6	270	0.00	29.995 
15:55	53.9	53.9	53.9	60	40.3	2	8	248	0.00	29.995 
16:00	53.8	53.8	53.8	61	40.7	2	7	248	0.00	30.010 
16:05	53.8	53.8	53.8	61	40.7	2	7	270	0.00	30.010 
16:10	53.6	53.6	53.6	61	40.5	2	5	270	0.00	30.010 
16:15	53.5	53.5	53.5	61	40.4	2	6	248	0.00	30.009 
16:20	53.3	53.3	53.3	60	39.8	4	7	292	0.00	30.009 
16:25	53.3	53.3	53.3	61	40.2	1	5	292	0.00	30.009 
16:30	53.3	53.3	53.3	60	39.8	2	5	292	0.00	30.014 
16:35	53.2	53.2	53.2	60	39.7	2	6	270	0.00	30.014 
16:40	53.1	53.1	53.1	60	39.6	2	5	270	0.00	30.014 
16:45	53.1	53.1	53.1	61	40.0	1	5	270	0.00	30.015 
16:50	53.1	53.1	53.1	62	40.4	1	4	270	0.00	30.015 
16:55	52.9	52.9	52.9	63	40.7	1	3	315	0.00	30.015 
17:00	52.5	52.5	52.5	63	40.3	2	5	315	0.00	30.025 
17:05	52.2	52.2	52.2	63	40.0	3	7	292	0.00	30.025 
17:10	51.7	51.7	51.7	64	39.9	2	5	270	0.00	30.025 
17:15	51.4	51.4	51.4	64	39.6	2	4	270	0.00	30.026 
17:20	51.3	51.3	51.3	65	39.9	2	7	270	0.00	30.026 
17:25	51.1	51.1	51.1	64	39.4	1	4	270	0.00	30.026 
17:30	50.8	50.8	50.8	64	39.1	3	6	270	0.00	30.039 
17:35	50.7	50.7	50.7	64	39.0	2	6	270	0.00	30.039 
17:40	50.5	50.5	50.5	64	38.8	4	6	292	0.00	30.039 
17:45	50.4	50.4	50.4	64	38.7	3	7	270	0.00	30.044 
17:50	50.2	50.2	50.2	64	38.5	2	5	270	0.00	30.044 
17:55	50.1	50.1	50.1	64	38.4	2	6	315	0.00	30.044 
18:00	50.1	50.1	50.1	64	38.4	3	6	315	0.00	30.049 
18:05	50.1	50.1	50.1	64	38.4	4	7	292	0.00	30.049 
18:10	50.1	50.1	50.1	64	38.4	3	5	292	0.00	30.049 
18:15	50.1	50.1	50.1	65	38.8	1	4	292	0.00	30.055 
18:20	50.1	50.1	50.1	65	38.8	1	4	292	0.00	30.055 
18:25	50.1	50.1	50.1	65	38.8	1	3	292	0.00	30.055 
18:30	50.1	50.1	50.1	65	38.8	1	3	270	0.00	30.059 
18:35	50.1	50.1	50.1	65	38.8	0	1	270	0.00	30.059 
18:40	50.1	50.1	50.1	65	38.8	1	5	270	0.00	30.059 
18:45	50.1	50.1	50.1	65	38.8	1	4	270	0.00	30.064 
18:50	50.1	50.1	50.1	65	38.8	0	3	270	0.00	30.064 
18:55	50.1	50.1	50.1	65	38.8	1	3	270	0.00	30.064 
19:00	50.1	50.1	50.1	65	38.8	1	3	270	0.00	30.072 
19:05	50.1	50.1	50.1	65	38.8	1	3	270	0.00	30.072 
19:10	50.1	50.1	50.1	65	38.8	1	3	270	0.00	30.072 
19:15	50.1	50.1	50.1	65	38.8	1	3	270	0.00	30.075 
19:20	50.1	50.1	50.1	65	38.8	0	2	270	0.00	30.075 
19:25	50.1	50.1	50.1	65	38.8	0	2	270	0.00	30.075 
19:30	50.1	50.1	50.1	65	38.8	1	2	270	0.00	30.076 
19:35	50.1	50.1	50.1	66	39.2	0	2	270	0.00	30.076 
19:40	50.1	50.1	50.1	65	38.8	1	4	292	0.00	30.076 
19:45	50.2	50.2	50.2	66	39.3	1	4	292	0.00	30.083 
19:50	50.2	50.2	50.2	67	39.7	0	2	270	0.00	30.083 
19:55	50.2	50.2	50.2	67	39.7	1	3	270	0.00	30.083 
20:00	50.1	50.1	50.1	66	39.2	1	4	270	0.00	30.091 
20:05	50.1	50.1	50.1	66	39.2	0	2	270	0.00	30.091 
20:10	50.1	50.1	50.1	67	39.6	0	2	270	0.00	30.091 
20:15	50.1	50.1	50.1	67	39.6	0	1	270	0.00	30.093 
20:20	50.1	50.1	50.1	67	39.6	0	3	270	0.00	30.093 
20:25	49.9	49.9	49.9	67	39.4	0	2	270	0.00	30.093 
20:30	49.9	49.9	49.9	66	39.0	1	4	292	0.00	30.095 
20:35	49.8	49.8	49.8	65	38.5	1	4	292	0.00	30.095 
20:40	49.8	49.8	49.8	64	38.1	1	4	292	0.00	30.095 
20:45	49.8	49.8	49.8	64	38.1	1	3	292	0.00	30.101 
20:50	49.6	49.6	49.6	65	38.3	1	4	292	0.00	30.101 
20:55	49.6	49.6	49.6	65	38.3	1	4	270	0.00	30.101 
21:00	49.6	49.6	49.6	65	38.3	1	3	270	0.00	30.107 
21:05	49.5	49.5	49.5	65	38.2	1	3	292	0.00	30.107 
21:10	49.5	49.5	49.5	65	38.2	1	3	292	0.00	30.107 
21:15	49.5	49.5	49.5	65	38.2	1	5	292	0.00	30.112 
21:20	49.5	49.5	49.5	64	37.8	2	6	270	0.00	30.112 
21:25	49.5	49.5	49.5	64	37.8	1	3	292	0.00	30.112 
21:30	49.4	49.4	49.4	64	37.7	0	3	292	0.00	30.112 
21:35	49.4	49.4	49.4	64	37.7	1	4	292	0.00	30.112 
21:40	49.5	49.5	49.5	62	37.0	2	5	292	0.00	30.112 
21:45	49.6	49.6	49.6	61	36.7	3	7	270	0.00	30.112 
21:50	49.8	49.8	49.8	60	36.5	2	6	270	0.00	30.112 
21:55	49.8	49.8	49.8	61	36.9	2	5	270	0.00	30.112 
22:00	49.6	49.6	49.6	61	36.7	1	3	270	0.00	30.114 
22:05	49.6	49.6	49.6	62	37.1	1	3	270	0.00	30.114 
22:10	49.5	49.5	49.5	62	37.0	1	3	270	0.00	30.114 
22:15	49.5	49.5	49.5	62	37.0	1	5	270	0.00	30.116 
22:20	49.4	49.4	49.4	62	36.9	1	4	270	0.00	30.116 
22:25	49.4	49.4	49.4	62	36.9	1	3	270	0.00	30.116 
22:30	49.2	49.2	49.2	62	36.7	1	4	292	0.00	30.114 
22:35	49.1	49.1	49.1	62	36.6	1	4	292	0.00	30.114 
22:40	49.1	49.1	49.1	63	37.1	1	4	292	0.00	30.114 
22:45	48.9	48.9	48.9	64	37.3	0	3	292	0.00	30.125 
22:50	48.8	48.8	48.8	65	37.6	0	2	292	0.00	30.125 
22:55	48.5	48.5	48.5	66	37.7	0	3	292	0.00	30.125 
23:00	48.3	48.3	48.3	66	37.5	0	1	292	0.00	30.117 
23:05	48.0	48.0	48.0	67	37.6	0	1	292	0.00	30.117 
23:10	47.9	47.9	47.9	68	37.9	0	1	292	0.00	30.117 
23:15	47.6	47.6	47.6	68	37.6	0	1	292	0.00	30.115 
23:20	47.4	47.4	47.4	68	37.4	0	1	292	0.00	30.115 
23:25	47.3	47.3	47.3	69	37.7	0	1	292	0.00	30.115 
23:30	47.1	47.1	47.1	69	37.5	0	1	292	0.00	30.126 
23:35	47.0	47.0	47.0	69	37.4	0	1	292	0.00	30.126 
23:40	46.8	46.8	46.8	70	37.5	0	2	292	0.00	30.126 
23:45	46.8	46.8	46.8	70	37.5	0	3	292	0.00	30.120 
23:50	46.7	46.7	46.7	71	37.8	1	3	292	0.00	30.120 
23:55	46.5	46.5	46.5	71	37.6	0	2	292	0.00	30.120 

CoCoRaHS
IN-AL-39
A2 Web Hosting
Creative Commons License
GoDaddy
search engine by freefind advanced

loaded 2018-11-15 16:30:18 • last modified 2010-11-18 10:43:29
Privacy PolicyDisclaimer
• wx.awcolley.com is powered by PmWiki v.2002016 •
• all content (unless otherwise noted) © 2018 A W Colley